createdAt,value
2023-01-05T00:00:37.979Z,39.40
2023-01-05T00:01:37.942Z,38.60
2023-01-05T00:02:37.942Z,37.90
2023-01-05T00:03:37.871Z,37.30
2023-01-05T00:04:37.925Z,36.30
2023-01-05T00:05:37.869Z,37.00
2023-01-05T00:06:37.897Z,36.70
2023-01-05T00:07:37.864Z,36.90
2023-01-05T00:08:38.129Z,36.40
2023-01-05T00:09:37.860Z,37.30
2023-01-05T00:10:37.860Z,36.70
2023-01-05T00:11:37.858Z,37.20
2023-01-05T00:12:37.857Z,36.20
2023-01-05T00:13:37.850Z,36.00
2023-01-05T00:14:37.851Z,36.80
2023-01-05T00:15:37.855Z,35.80
2023-01-05T00:16:37.882Z,36.50
2023-01-05T00:17:37.846Z,37.10
2023-01-05T00:18:37.845Z,36.60
2023-01-05T00:19:37.840Z,35.80
2023-01-05T00:20:37.848Z,36.50
2023-01-05T00:21:37.843Z,35.50
2023-01-05T00:22:37.868Z,35.70
2023-01-05T00:23:37.831Z,35.90
2023-01-05T00:24:37.839Z,35.90
2023-01-05T00:25:37.845Z,35.80
2023-01-05T00:26:37.824Z,36.80
2023-01-05T00:27:37.830Z,36.60
2023-01-05T00:28:37.823Z,36.70
2023-01-05T00:29:37.819Z,36.90
2023-01-05T00:30:37.823Z,36.20
2023-01-05T00:31:37.831Z,35.90
2023-01-05T00:32:37.810Z,36.60
2023-01-05T00:33:37.808Z,36.20
2023-01-05T00:34:37.810Z,36.80
2023-01-05T00:35:37.803Z,36.70
2023-01-05T00:36:37.804Z,36.00
2023-01-05T00:37:37.799Z,37.20
2023-01-05T00:38:37.822Z,36.70
2023-01-05T00:39:37.801Z,37.30
2023-01-05T00:40:37.807Z,36.90
2023-01-05T00:41:37.789Z,36.50
2023-01-05T00:42:37.802Z,37.70
2023-01-05T00:43:37.794Z,37.50
2023-01-05T00:44:37.789Z,36.60
2023-01-05T00:45:37.883Z,37.10
2023-01-05T00:46:37.793Z,37.90
2023-01-05T00:47:37.779Z,37.40
2023-01-05T00:48:37.784Z,37.20
2023-01-05T00:49:37.776Z,36.70
2023-01-05T00:50:37.771Z,36.40
2023-01-05T00:51:37.768Z,36.80
2023-01-05T00:52:37.768Z,36.50
2023-01-05T00:53:37.774Z,35.70
2023-01-05T00:54:37.788Z,36.40
2023-01-05T00:55:37.760Z,36.20
2023-01-05T00:56:37.770Z,37.00
2023-01-05T00:57:37.755Z,37.00
2023-01-05T00:58:37.767Z,37.00
2023-01-05T00:59:37.750Z,36.20
2023-01-05T01:00:42.296Z,35.30
2023-01-05T01:01:37.948Z,36.00
2023-01-05T01:02:37.751Z,36.00
2023-01-05T01:03:37.906Z,34.80
2023-01-05T01:04:37.747Z,36.70
2023-01-05T01:05:37.742Z,36.10
2023-01-05T01:06:37.736Z,35.50
2023-01-05T01:07:37.728Z,36.90
2023-01-05T01:08:37.746Z,36.00
2023-01-05T01:09:37.724Z,36.50
2023-01-05T01:10:37.753Z,36.30
2023-01-05T01:11:37.745Z,35.60
2023-01-05T01:12:37.724Z,34.40
2023-01-05T01:13:37.720Z,34.80
2023-01-05T01:14:37.721Z,35.00
2023-01-05T01:15:37.713Z,35.30
2023-01-05T01:16:37.795Z,35.40
2023-01-05T01:17:37.710Z,35.80
2023-01-05T01:18:37.723Z,35.60
2023-01-05T01:19:37.711Z,35.00
2023-01-05T01:20:37.710Z,36.50
2023-01-05T01:21:37.701Z,35.80
2023-01-05T01:22:37.698Z,35.60
2023-01-05T01:23:37.695Z,34.70
2023-01-05T01:24:37.703Z,35.00
2023-01-05T01:25:37.696Z,34.70
2023-01-05T01:26:37.717Z,34.60
2023-01-05T01:27:37.684Z,34.80
2023-01-05T01:28:37.697Z,34.30
2023-01-05T01:29:37.687Z,33.80
2023-01-05T01:30:37.769Z,34.90
2023-01-05T01:31:37.680Z,33.90
2023-01-05T01:32:37.691Z,34.80
2023-01-05T01:33:37.672Z,34.40
2023-01-05T01:34:37.688Z,34.70
2023-01-05T01:35:37.669Z,35.50
2023-01-05T01:36:37.672Z,34.70
2023-01-05T01:37:37.679Z,34.70
2023-01-05T01:38:37.677Z,35.20
2023-01-05T01:39:37.664Z,34.40
2023-01-05T01:40:37.663Z,34.20
2023-01-05T01:41:37.658Z,34.60
2023-01-05T01:42:37.681Z,33.80
2023-01-05T01:43:37.660Z,33.70
2023-01-05T01:44:37.656Z,34.10
2023-01-05T01:45:37.733Z,34.00
2023-01-05T01:46:37.651Z,34.10
2023-01-05T01:47:37.647Z,34.40
2023-01-05T01:48:37.646Z,34.00
2023-01-05T01:49:37.637Z,34.60
2023-01-05T01:50:37.635Z,35.40
2023-01-05T01:51:37.634Z,34.80
2023-01-05T01:52:37.636Z,35.20
2023-01-05T01:53:37.628Z,34.50
2023-01-05T01:54:37.631Z,34.80
2023-01-05T01:55:37.641Z,34.60
2023-01-05T01:56:37.625Z,35.10
2023-01-05T01:57:37.618Z,35.10
2023-01-05T01:58:37.653Z,34.40
2023-01-05T01:59:37.618Z,34.40
2023-01-05T02:00:37.617Z,35.20
2023-01-05T02:01:37.724Z,35.70
2023-01-05T02:02:37.748Z,35.10
2023-01-05T02:03:37.606Z,35.10
2023-01-05T02:04:37.739Z,34.70
2023-01-05T02:05:37.601Z,35.00
2023-01-05T02:06:37.617Z,35.80
2023-01-05T02:07:37.598Z,34.80
2023-01-05T02:08:37.598Z,34.80
2023-01-05T02:09:37.594Z,34.90
2023-01-05T02:10:37.607Z,35.40
2023-01-05T02:11:37.589Z,34.90
2023-01-05T02:12:37.588Z,35.00
2023-01-05T02:13:37.582Z,35.10
2023-01-05T02:14:37.613Z,35.00
2023-01-05T02:15:37.589Z,34.70
2023-01-05T02:16:37.659Z,34.60
2023-01-05T02:17:37.574Z,35.00
2023-01-05T02:18:37.579Z,34.50
2023-01-05T02:19:37.569Z,33.90
2023-01-05T02:20:37.582Z,34.20
2023-01-05T02:21:37.566Z,35.20
2023-01-05T02:22:37.571Z,34.30
2023-01-05T02:23:37.564Z,34.50
2023-01-05T02:24:37.564Z,34.90
2023-01-05T02:25:37.557Z,33.80
2023-01-05T02:26:37.559Z,34.40
2023-01-05T02:27:37.570Z,33.20
2023-01-05T02:28:37.555Z,33.20
2023-01-05T02:29:37.550Z,34.10
2023-01-05T02:30:37.733Z,34.10
2023-01-05T02:31:37.543Z,33.10
2023-01-05T02:32:37.545Z,33.10
2023-01-05T02:33:37.540Z,33.20
2023-01-05T02:34:37.545Z,33.30
2023-01-05T02:35:37.535Z,33.60
2023-01-05T02:36:37.539Z,33.80
2023-01-05T02:37:37.530Z,33.80
2023-01-05T02:38:37.533Z,34.00
2023-01-05T02:39:37.524Z,34.80
2023-01-05T02:40:37.531Z,34.20
2023-01-05T02:41:37.524Z,34.60
2023-01-05T02:42:37.523Z,34.80
2023-01-05T02:43:37.518Z,33.80
2023-01-05T02:44:37.528Z,34.00
2023-01-05T02:45:37.516Z,33.40
2023-01-05T02:46:37.565Z,42.70
2023-01-05T02:47:37.507Z,43.50
2023-01-05T02:48:37.506Z,43.10
2023-01-05T02:49:37.507Z,42.60
2023-01-05T02:50:37.530Z,42.80
2023-01-05T02:51:37.499Z,41.70
2023-01-05T02:52:37.500Z,42.10
2023-01-05T02:53:37.492Z,42.00
2023-01-05T02:54:37.497Z,42.00
2023-01-05T02:55:37.501Z,41.90
2023-01-05T02:56:37.490Z,42.00
2023-01-05T02:57:37.488Z,41.40
2023-01-05T02:58:37.486Z,41.60
2023-01-05T02:59:37.489Z,41.70
2023-01-05T03:00:37.485Z,42.30
2023-01-05T03:01:37.586Z,41.10
2023-01-05T03:02:37.687Z,40.60
2023-01-05T03:03:37.580Z,40.20
2023-01-05T03:04:37.493Z,40.90
2023-01-05T03:05:37.465Z,39.80
2023-01-05T03:06:37.466Z,40.20
2023-01-05T03:07:37.493Z,39.60
2023-01-05T03:08:38.302Z,39.60
2023-01-05T03:09:37.458Z,39.30
2023-01-05T03:10:37.463Z,39.20
2023-01-05T03:11:37.455Z,35.80
2023-01-05T03:12:37.472Z,36.00
2023-01-05T03:13:37.457Z,34.80
2023-01-05T03:14:37.466Z,34.80
2023-01-05T03:15:37.495Z,35.80
2023-01-05T03:16:37.453Z,35.80
2023-01-05T03:17:37.441Z,35.30
2023-01-05T03:18:37.469Z,34.80
2023-01-05T03:19:37.439Z,35.40
2023-01-05T03:20:37.439Z,35.10
2023-01-05T03:21:37.437Z,34.60
2023-01-05T03:22:37.451Z,34.70
2023-01-05T03:23:37.435Z,34.20
2023-01-05T03:24:37.428Z,34.00
2023-01-05T03:25:37.435Z,34.10
2023-01-05T03:26:37.424Z,34.30
2023-01-05T03:27:37.430Z,33.80
2023-01-05T03:28:37.428Z,34.70
2023-01-05T03:29:37.425Z,35.50
2023-01-05T03:30:37.456Z,33.50
2023-01-05T03:31:37.417Z,34.40
2023-01-05T03:32:37.409Z,34.20
2023-01-05T03:33:37.423Z,33.60
2023-01-05T03:34:37.433Z,34.40
2023-01-05T03:35:37.411Z,33.70
2023-01-05T03:36:37.400Z,33.60
2023-01-05T03:37:37.399Z,32.90
2023-01-05T03:38:37.406Z,33.30
2023-01-05T03:39:37.396Z,33.00
2023-01-05T03:40:37.396Z,33.00
2023-01-05T03:41:37.398Z,32.70
2023-01-05T03:42:37.389Z,33.10
2023-01-05T03:43:37.388Z,32.30
2023-01-05T03:44:37.386Z,33.10
2023-01-05T03:45:37.381Z,33.00
2023-01-05T03:46:37.422Z,33.00
2023-01-05T03:47:37.386Z,33.20
2023-01-05T03:48:37.373Z,32.40
2023-01-05T03:49:37.386Z,32.80
2023-01-05T03:50:37.396Z,32.30
2023-01-05T03:51:41.771Z,32.70
2023-01-05T03:52:37.360Z,32.40
2023-01-05T03:53:37.367Z,33.10
2023-01-05T03:54:37.367Z,32.90
2023-01-05T03:55:37.362Z,31.70
2023-01-05T03:56:37.360Z,31.60
2023-01-05T03:57:37.358Z,31.20
2023-01-05T03:58:37.356Z,31.40
2023-01-05T03:59:37.352Z,31.70
2023-01-05T04:00:37.348Z,31.60
2023-01-05T04:01:37.481Z,30.90
2023-01-05T04:02:37.680Z,29.50
2023-01-05T04:03:37.474Z,29.10
2023-01-05T04:04:37.341Z,29.00
2023-01-05T04:05:37.342Z,29.10
2023-01-05T04:06:37.365Z,29.30
2023-01-05T04:07:37.333Z,29.10
2023-01-05T04:08:37.327Z,30.60
2023-01-05T04:09:37.335Z,30.50
2023-01-05T04:10:37.324Z,29.10
2023-01-05T04:11:37.326Z,29.60
2023-01-05T04:12:37.322Z,30.20
2023-01-05T04:13:37.321Z,30.80
2023-01-05T04:14:37.312Z,31.30
2023-01-05T04:15:37.435Z,31.80
2023-01-05T04:16:37.352Z,32.70
2023-01-05T04:17:37.316Z,34.20
2023-01-05T04:18:37.309Z,33.70
2023-01-05T04:19:37.313Z,33.70
2023-01-05T04:20:37.301Z,36.40
2023-01-05T04:21:37.304Z,33.60
2023-01-05T04:22:37.317Z,34.00
2023-01-05T04:23:37.303Z,34.20
2023-01-05T04:24:37.309Z,34.40
2023-01-05T04:25:37.304Z,34.10
2023-01-05T04:26:37.299Z,34.70
2023-01-05T04:27:37.290Z,33.90
2023-01-05T04:28:37.300Z,33.60
2023-01-05T04:29:37.281Z,32.60
2023-01-05T04:30:37.280Z,34.10
2023-01-05T04:31:37.304Z,34.80
2023-01-05T04:32:37.276Z,34.40
2023-01-05T04:33:37.275Z,34.10
2023-01-05T04:34:37.272Z,34.10
2023-01-05T04:35:37.269Z,33.50
2023-01-05T04:36:37.270Z,33.70
2023-01-05T04:37:37.267Z,33.50
2023-01-05T04:38:37.280Z,34.80
2023-01-05T04:39:37.261Z,33.30
2023-01-05T04:40:37.263Z,34.40
2023-01-05T04:41:37.257Z,33.00
2023-01-05T04:42:37.257Z,32.20
2023-01-05T04:43:37.256Z,32.70
2023-01-05T04:44:37.258Z,32.80
2023-01-05T04:45:37.251Z,34.90
2023-01-05T04:46:37.343Z,36.10
2023-01-05T04:47:37.245Z,34.70
2023-01-05T04:48:37.239Z,34.40
2023-01-05T04:49:37.255Z,34.40
2023-01-05T04:50:37.238Z,34.20
2023-01-05T04:51:37.236Z,33.60
2023-01-05T04:52:37.239Z,34.00
2023-01-05T04:53:37.234Z,34.10
2023-01-05T04:54:37.257Z,33.40
2023-01-05T04:55:37.241Z,33.90
2023-01-05T04:56:37.223Z,35.40
2023-01-05T04:57:37.222Z,33.70
2023-01-05T04:58:37.222Z,35.20
2023-01-05T04:59:37.216Z,35.50
2023-01-05T05:00:37.216Z,34.40
2023-01-05T05:01:37.420Z,35.40
2023-01-05T05:02:37.314Z,35.80
2023-01-05T05:03:37.249Z,35.60
2023-01-05T05:04:37.212Z,33.70
2023-01-05T05:05:37.206Z,32.10
2023-01-05T05:06:37.204Z,34.50
2023-01-05T05:07:37.208Z,34.00
2023-01-05T05:08:37.195Z,32.90
2023-01-05T05:09:37.200Z,34.00
2023-01-05T05:10:37.211Z,34.80
2023-01-05T05:11:37.193Z,34.90
2023-01-05T05:12:37.187Z,34.50
2023-01-05T05:13:37.188Z,34.20
2023-01-05T05:14:37.185Z,36.80
2023-01-05T05:15:37.236Z,35.00
2023-01-05T05:16:37.181Z,34.40
2023-01-05T05:17:37.183Z,36.60
2023-01-05T05:18:37.183Z,36.50
2023-01-05T05:19:37.186Z,35.70
2023-01-05T05:20:37.189Z,34.60
2023-01-05T05:21:37.172Z,33.90
2023-01-05T05:22:37.167Z,33.50
2023-01-05T05:23:37.493Z,33.30
2023-01-05T05:24:37.158Z,32.30
2023-01-05T05:25:37.162Z,32.20
2023-01-05T05:26:37.181Z,32.10
2023-01-05T05:27:37.158Z,32.60
2023-01-05T05:28:37.150Z,32.50
2023-01-05T05:29:37.150Z,33.10
2023-01-05T05:30:37.149Z,31.90
2023-01-05T05:31:37.205Z,34.60
2023-01-05T05:32:43.803Z,33.60
2023-01-05T05:33:37.144Z,34.50
2023-01-05T05:34:37.145Z,34.20
2023-01-05T05:35:37.153Z,33.60
2023-01-05T05:36:37.144Z,34.00
2023-01-05T05:37:37.149Z,32.50
2023-01-05T05:38:37.137Z,32.50
2023-01-05T05:39:37.138Z,33.80
2023-01-05T05:40:37.128Z,32.70
2023-01-05T05:41:37.130Z,33.50
2023-01-05T05:42:37.146Z,33.40
2023-01-05T05:43:37.138Z,33.20
2023-01-05T05:44:37.114Z,32.90
2023-01-05T05:45:37.121Z,34.70
2023-01-05T05:46:37.247Z,33.40
2023-01-05T05:47:37.113Z,34.60
2023-01-05T05:48:37.111Z,31.80
2023-01-05T05:49:37.112Z,32.40
2023-01-05T05:50:37.131Z,33.20
2023-01-05T05:51:37.107Z,32.30
2023-01-05T05:52:37.102Z,31.90
2023-01-05T05:53:37.115Z,31.40
2023-01-05T05:54:37.103Z,32.20
2023-01-05T05:55:37.099Z,32.70
2023-01-05T05:56:37.089Z,32.90
2023-01-05T05:57:37.094Z,33.20
2023-01-05T05:58:37.218Z,32.60
2023-01-05T05:59:37.086Z,30.70
2023-01-05T06:00:37.437Z,33.40
2023-01-05T06:01:37.340Z,32.30
2023-01-05T06:02:37.208Z,30.70
2023-01-05T06:03:37.128Z,30.50
2023-01-05T06:04:37.140Z,30.90
2023-01-05T06:05:37.085Z,31.60
2023-01-05T06:06:37.070Z,30.80
2023-01-05T06:07:37.074Z,30.50
2023-01-05T06:08:37.075Z,34.90
2023-01-05T06:09:37.078Z,35.50
2023-01-05T06:10:37.058Z,36.80
2023-01-05T06:11:37.063Z,34.60
2023-01-05T06:12:37.079Z,36.00
2023-01-05T06:13:37.091Z,36.10
2023-01-05T06:14:37.073Z,35.60
2023-01-05T06:15:37.053Z,35.80
2023-01-05T06:16:37.117Z,36.50
2023-01-05T06:17:37.056Z,38.80
2023-01-05T06:18:37.044Z,36.20
2023-01-05T06:19:37.043Z,36.20
2023-01-05T06:20:37.057Z,37.40
2023-01-05T06:21:37.042Z,36.70
2023-01-05T06:22:37.065Z,38.30
2023-01-05T06:23:37.034Z,39.10
2023-01-05T06:24:37.028Z,38.40
2023-01-05T06:25:37.040Z,37.10
2023-01-05T06:26:37.025Z,37.10
2023-01-05T06:27:37.035Z,37.50
2023-01-05T06:28:37.025Z,37.70
2023-01-05T06:29:37.029Z,38.40
2023-01-05T06:30:37.033Z,37.00
2023-01-05T06:31:37.123Z,38.70
2023-01-05T06:32:37.020Z,40.10
2023-01-05T06:33:37.015Z,39.70
2023-01-05T06:34:37.012Z,38.40
2023-01-05T06:35:37.015Z,39.30
2023-01-05T06:36:37.005Z,38.40
2023-01-05T06:37:37.007Z,37.10
2023-01-05T06:38:37.003Z,35.60
2023-01-05T06:39:37.001Z,35.60
2023-01-05T06:40:37.003Z,33.20
2023-01-05T06:41:36.991Z,35.50
2023-01-05T06:42:36.988Z,34.20
2023-01-05T06:43:37.001Z,36.30
2023-01-05T06:44:36.985Z,36.10
2023-01-05T06:45:37.036Z,35.50
2023-01-05T06:46:37.008Z,35.60
2023-01-05T06:47:36.979Z,38.90
2023-01-05T06:48:36.974Z,36.50
2023-01-05T06:49:36.976Z,38.20
2023-01-05T06:50:36.973Z,37.80
2023-01-05T06:51:36.966Z,36.40
2023-01-05T06:52:36.960Z,38.60
2023-01-05T06:53:36.963Z,38.60
2023-01-05T06:54:36.958Z,38.40
2023-01-05T06:55:36.966Z,40.30
2023-01-05T06:56:36.961Z,38.30
2023-01-05T06:57:36.959Z,37.20
2023-01-05T06:58:36.969Z,41.20
2023-01-05T06:59:36.957Z,38.80
2023-01-05T07:00:36.991Z,37.80
2023-01-05T07:01:37.068Z,45.20
2023-01-05T07:02:36.979Z,39.50
2023-01-05T07:03:37.031Z,36.30
2023-01-05T07:04:36.941Z,42.60
2023-01-05T07:05:36.950Z,38.00
2023-01-05T07:06:36.933Z,38.20
2023-01-05T07:07:36.940Z,41.70
2023-01-05T07:08:36.927Z,39.70
2023-01-05T07:09:36.931Z,37.50
2023-01-05T07:10:36.924Z,39.90
2023-01-05T07:11:36.922Z,39.10
2023-01-05T07:12:36.923Z,38.90
2023-01-05T07:13:36.919Z,41.70
2023-01-05T07:14:36.913Z,39.60
2023-01-05T07:15:36.919Z,38.20
2023-01-05T07:16:36.963Z,39.30
2023-01-05T07:17:36.902Z,39.70
2023-01-05T07:18:36.919Z,38.80
2023-01-05T07:19:36.913Z,38.20
2023-01-05T07:20:36.891Z,38.20
2023-01-05T07:21:36.895Z,36.70
2023-01-05T07:22:36.888Z,38.00
2023-01-05T07:23:36.890Z,37.80
2023-01-05T07:24:36.905Z,37.10
2023-01-05T07:25:36.884Z,38.10
2023-01-05T07:26:36.879Z,38.00
2023-01-05T07:27:36.881Z,37.00
2023-01-05T07:28:36.877Z,38.10
2023-01-05T07:29:36.875Z,37.00
2023-01-05T07:30:36.868Z,36.10
2023-01-05T07:31:36.935Z,38.50
2023-01-05T07:32:36.861Z,38.20
2023-01-05T07:33:40.017Z,38.20
2023-01-05T07:34:36.883Z,38.60
2023-01-05T07:35:36.861Z,38.20
2023-01-05T07:36:36.854Z,36.80
2023-01-05T07:37:36.867Z,40.50
2023-01-05T07:38:36.852Z,38.70
2023-01-05T07:39:36.851Z,37.20
2023-01-05T07:40:36.847Z,38.30
2023-01-05T07:41:36.860Z,38.90
2023-01-05T07:42:36.847Z,40.00
2023-01-05T07:43:36.863Z,38.40
2023-01-05T07:44:36.839Z,37.40
2023-01-05T07:45:36.898Z,39.20
2023-01-05T07:46:36.836Z,38.50
2023-01-05T07:47:36.820Z,38.50
2023-01-05T07:48:36.829Z,38.90
2023-01-05T07:49:36.820Z,38.50
2023-01-05T07:50:36.849Z,39.50
2023-01-05T07:51:36.827Z,40.10
2023-01-05T07:52:36.812Z,39.00
2023-01-05T07:53:43.550Z,38.60
2023-01-05T07:54:36.811Z,38.70
2023-01-05T07:55:36.810Z,37.90
2023-01-05T07:56:36.815Z,37.60
2023-01-05T07:57:36.808Z,39.20
2023-01-05T07:58:36.802Z,38.80
2023-01-05T07:59:36.791Z,39.60
2023-01-05T08:00:36.788Z,39.30
2023-01-05T08:01:36.897Z,38.50
2023-01-05T08:02:36.811Z,39.10
2023-01-05T08:03:36.781Z,39.00
2023-01-05T08:04:36.881Z,35.90
2023-01-05T08:05:36.772Z,36.40
2023-01-05T08:06:36.802Z,36.70
2023-01-05T08:07:36.769Z,35.20
2023-01-05T08:08:36.772Z,32.30
2023-01-05T08:09:36.762Z,33.40
2023-01-05T08:10:36.761Z,32.40
2023-01-05T08:11:36.758Z,32.70
2023-01-05T08:12:36.759Z,34.90
2023-01-05T08:13:36.780Z,35.90
2023-01-05T08:14:36.764Z,34.80
2023-01-05T08:15:36.746Z,34.90
2023-01-05T08:16:36.787Z,35.00
2023-01-05T08:17:36.741Z,35.70
2023-01-05T08:18:36.743Z,32.90
2023-01-05T08:19:36.736Z,33.00
2023-01-05T08:20:36.740Z,33.10
2023-01-05T08:21:36.728Z,35.00
2023-01-05T08:22:36.789Z,35.10
2023-01-05T08:23:36.723Z,35.30
2023-01-05T08:24:36.729Z,34.10
2023-01-05T08:25:36.720Z,33.90
2023-01-05T08:26:36.763Z,34.40
2023-01-05T08:27:36.713Z,34.50
2023-01-05T08:28:36.790Z,34.40
2023-01-05T08:29:36.709Z,34.20
2023-01-05T08:30:36.709Z,34.90
2023-01-05T08:31:36.721Z,34.70
2023-01-05T08:32:36.706Z,33.50
2023-01-05T08:33:36.706Z,35.30
2023-01-05T08:34:36.719Z,33.80
2023-01-05T08:35:36.710Z,33.70
2023-01-05T08:36:36.694Z,33.90
2023-01-05T08:37:36.690Z,35.20
2023-01-05T08:38:36.714Z,34.40
2023-01-05T08:39:36.693Z,34.10
2023-01-05T08:40:36.683Z,32.90
2023-01-05T08:41:36.715Z,35.10
2023-01-05T08:42:36.677Z,33.00
2023-01-05T08:43:36.666Z,35.30
2023-01-05T08:44:36.676Z,34.80
2023-01-05T08:45:36.717Z,34.00
2023-01-05T08:46:36.668Z,33.70
2023-01-05T08:47:36.664Z,35.80
2023-01-05T08:48:36.661Z,35.40
2023-01-05T08:49:36.656Z,34.50
2023-01-05T08:50:36.654Z,34.70
2023-01-05T08:51:36.662Z,35.40
2023-01-05T08:52:36.645Z,35.50
2023-01-05T08:53:36.641Z,36.30
2023-01-05T08:54:36.666Z,36.20
2023-01-05T08:55:36.657Z,33.80
2023-01-05T08:56:39.114Z,34.90
2023-01-05T08:57:36.633Z,34.50
2023-01-05T08:58:36.633Z,34.20
2023-01-05T08:59:36.640Z,34.70
2023-01-05T09:00:36.633Z,34.50
2023-01-05T09:01:36.880Z,33.90
2023-01-05T09:02:36.872Z,35.00
2023-01-05T09:03:36.648Z,35.30
2023-01-05T09:04:36.623Z,34.20
2023-01-05T09:05:36.612Z,33.10
2023-01-05T09:06:36.619Z,33.40
2023-01-05T09:07:36.610Z,33.60
2023-01-05T09:08:36.620Z,33.30
2023-01-05T09:09:36.608Z,34.20
2023-01-05T09:10:36.627Z,34.60
2023-01-05T09:11:36.600Z,34.60
2023-01-05T09:12:36.594Z,33.70
2023-01-05T09:13:36.586Z,34.20
2023-01-05T09:14:36.599Z,35.10
2023-01-05T09:15:36.587Z,33.80
2023-01-05T09:17:36.602Z,32.70
2023-01-05T09:18:36.585Z,33.40
2023-01-05T09:19:36.600Z,33.40
2023-01-05T09:20:40.073Z,33.30
2023-01-05T09:21:36.575Z,33.80
2023-01-05T09:22:36.595Z,32.10
2023-01-05T09:23:36.564Z,33.90
2023-01-05T09:24:36.574Z,34.50
2023-01-05T09:25:36.562Z,33.40
2023-01-05T09:26:36.588Z,31.80
2023-01-05T09:27:36.591Z,32.60
2023-01-05T09:28:36.575Z,31.90
2023-01-05T09:29:36.552Z,33.90
2023-01-05T09:30:44.351Z,32.20
2023-01-05T09:31:36.648Z,32.50
2023-01-05T09:32:36.549Z,33.70
2023-01-05T09:33:36.538Z,32.80
2023-01-05T09:34:36.545Z,33.10
2023-01-05T09:35:36.539Z,32.30
2023-01-05T09:36:36.541Z,33.00
2023-01-05T09:37:36.550Z,31.90
2023-01-05T09:38:38.063Z,30.80
2023-01-05T09:39:36.536Z,33.20
2023-01-05T09:40:36.544Z,33.20
2023-01-05T09:41:36.521Z,32.10
2023-01-05T09:42:36.656Z,31.60
2023-01-05T09:43:36.523Z,32.00
2023-01-05T09:44:36.522Z,32.10
2023-01-05T09:45:36.510Z,31.80
2023-01-05T09:46:36.597Z,31.90
2023-01-05T09:47:36.520Z,31.70
2023-01-05T09:48:36.511Z,31.50
2023-01-05T09:49:36.509Z,30.60
2023-01-05T09:50:36.510Z,30.50
2023-01-05T09:51:36.498Z,30.40
2023-01-05T09:52:38.643Z,31.80
2023-01-05T09:53:36.492Z,31.30
2023-01-05T09:54:36.498Z,30.70
2023-01-05T09:55:36.493Z,29.80
2023-01-05T09:57:36.478Z,29.40
2023-01-05T09:58:36.604Z,29.40
2023-01-05T09:59:36.491Z,28.70
2023-01-05T10:00:36.479Z,29.30
2023-01-05T10:01:36.505Z,28.30
2023-01-05T10:02:36.479Z,29.30
2023-01-05T10:04:02.802Z,29.00
2023-01-05T10:04:36.563Z,28.40
2023-01-05T10:05:36.529Z,27.20
2023-01-05T10:06:36.459Z,26.10
2023-01-05T10:07:36.471Z,26.90
2023-01-05T10:08:36.461Z,26.70
2023-01-05T10:09:36.452Z,26.30
2023-01-05T10:10:36.456Z,26.30
2023-01-05T10:11:36.449Z,27.40
2023-01-05T10:12:36.471Z,27.00
2023-01-05T10:13:36.442Z,27.10
2023-01-05T10:14:36.567Z,27.50
2023-01-05T10:15:36.581Z,26.00
2023-01-05T10:16:36.460Z,25.60
2023-01-05T10:17:41.629Z,26.00
2023-01-05T10:18:36.433Z,24.90
2023-01-05T10:19:36.431Z,24.80
2023-01-05T10:20:36.436Z,25.00
2023-01-05T10:21:36.425Z,24.90
2023-01-05T10:22:38.903Z,24.80
2023-01-05T10:23:36.417Z,23.80
2023-01-05T10:24:36.421Z,24.10
2023-01-05T10:25:36.424Z,24.10
2023-01-05T10:26:58.643Z,24.90
2023-01-05T10:27:36.409Z,25.00
2023-01-05T10:28:36.421Z,24.80
2023-01-05T10:29:36.403Z,25.30
2023-01-05T10:30:36.678Z,25.00
2023-01-05T10:31:36.397Z,23.30
2023-01-05T10:32:49.085Z,24.50
2023-01-05T10:33:40.620Z,24.00
2023-01-05T10:34:36.406Z,23.50
2023-01-05T10:36:00.670Z,22.90
2023-01-05T10:37:36.387Z,23.90
2023-01-05T10:38:36.385Z,22.20
2023-01-05T10:39:36.380Z,23.40
2023-01-05T10:40:36.378Z,23.10
2023-01-05T10:41:36.376Z,22.60
2023-01-05T10:42:36.376Z,23.50
2023-01-05T10:43:36.374Z,24.00
2023-01-05T10:44:36.377Z,23.80
2023-01-05T10:45:46.030Z,23.40
2023-01-05T10:46:41.921Z,23.90
2023-01-05T10:47:36.399Z,23.20
2023-01-05T10:48:36.366Z,23.10
2023-01-05T10:49:36.361Z,23.70
2023-01-05T10:50:36.370Z,22.80
2023-01-05T10:51:36.359Z,22.30
2023-01-05T10:52:36.365Z,21.20
2023-01-05T10:53:36.358Z,22.70
2023-01-05T10:54:36.359Z,21.50
2023-01-05T10:55:36.343Z,21.70
2023-01-05T10:56:36.343Z,22.00
2023-01-05T10:57:37.132Z,21.80
2023-01-05T10:58:36.350Z,20.80
2023-01-05T10:59:36.367Z,19.00
2023-01-05T11:00:36.342Z,19.60
2023-01-05T11:01:36.519Z,19.00
2023-01-05T11:02:36.836Z,18.60
2023-01-05T11:04:14.986Z,18.50
2023-01-05T11:04:36.389Z,19.00
2023-01-05T11:05:36.446Z,19.00
2023-01-05T11:06:36.326Z,18.20
2023-01-05T11:07:36.315Z,19.00
2023-01-05T11:08:36.319Z,18.40
2023-01-05T11:09:36.315Z,18.10
2023-01-05T11:10:36.323Z,18.80
2023-01-05T11:11:36.317Z,18.20
2023-01-05T11:12:36.314Z,18.80
2023-01-05T11:13:36.317Z,18.40
2023-01-05T11:14:36.313Z,18.20
2023-01-05T11:15:36.329Z,18.70
2023-01-05T11:16:36.303Z,17.80
2023-01-05T11:17:36.301Z,19.00
2023-01-05T11:18:36.418Z,17.80
2023-01-05T11:19:36.296Z,17.70
2023-01-05T11:20:36.311Z,17.60
2023-01-05T11:21:36.297Z,18.30
2023-01-05T11:22:36.298Z,18.80
2023-01-05T11:23:36.289Z,17.70
2023-01-05T11:24:36.288Z,18.60
2023-01-05T11:25:36.285Z,18.60
2023-01-05T11:26:36.293Z,17.60
2023-01-05T11:27:36.279Z,16.90
2023-01-05T11:28:36.281Z,16.50
2023-01-05T11:29:36.273Z,17.60
2023-01-05T11:30:36.299Z,17.80
2023-01-05T11:31:36.347Z,17.50
2023-01-05T11:32:36.272Z,17.10
2023-01-05T11:33:36.264Z,17.40
2023-01-05T11:34:36.444Z,17.40
2023-01-05T11:35:36.267Z,16.60
2023-01-05T11:36:36.264Z,16.30
2023-01-05T11:37:36.263Z,16.00
2023-01-05T11:38:36.274Z,15.40
2023-01-05T11:39:36.267Z,15.40
2023-01-05T11:40:36.268Z,15.80
2023-01-05T11:41:36.270Z,15.60
2023-01-05T11:42:36.276Z,15.00
2023-01-05T11:43:36.248Z,14.80
2023-01-05T11:44:36.256Z,15.10
2023-01-05T11:45:36.242Z,15.20
2023-01-05T11:46:36.276Z,15.10
2023-01-05T11:47:43.238Z,14.20
2023-01-05T11:48:36.284Z,15.00
2023-01-05T11:49:36.235Z,15.80
2023-01-05T11:50:36.361Z,15.20
2023-01-05T11:51:36.238Z,15.30
2023-01-05T11:52:36.234Z,16.00
2023-01-05T11:53:36.235Z,15.70
2023-01-05T11:54:36.227Z,15.20
2023-01-05T11:55:36.221Z,15.30
2023-01-05T11:56:36.231Z,14.60
2023-01-05T11:57:36.223Z,14.10
2023-01-05T11:58:36.229Z,14.60
2023-01-05T11:59:36.222Z,15.30
2023-01-05T12:00:36.311Z,15.10
2023-01-05T12:01:36.246Z,15.20
2023-01-05T12:02:36.260Z,14.00
2023-01-05T12:03:36.359Z,15.50
2023-01-05T12:04:36.214Z,14.70
2023-01-05T12:05:36.219Z,14.20
2023-01-05T12:06:36.328Z,14.10
2023-01-05T12:07:36.537Z,14.10
2023-01-05T12:08:36.200Z,13.30
2023-01-05T12:09:36.351Z,14.10
2023-01-05T12:10:36.205Z,14.20
2023-01-05T12:11:36.202Z,14.40
2023-01-05T12:12:36.193Z,15.00
2023-01-05T12:13:36.199Z,15.10
2023-01-05T12:14:36.200Z,15.00
2023-01-05T12:15:36.193Z,14.90
2023-01-05T12:16:36.212Z,15.10
2023-01-05T12:17:36.192Z,15.10
2023-01-05T12:18:36.186Z,15.20
2023-01-05T12:19:36.199Z,15.20
2023-01-05T12:20:36.202Z,15.10
2023-01-05T12:21:36.184Z,14.80
2023-01-05T12:22:36.299Z,15.20
2023-01-05T12:23:36.188Z,15.10
2023-01-05T12:24:36.186Z,15.10
2023-01-05T12:25:36.179Z,15.10
2023-01-05T12:26:36.171Z,15.40
2023-01-05T12:27:36.173Z,15.00
2023-01-05T12:28:41.415Z,14.80
2023-01-05T12:31:34.493Z,14.70
2023-01-05T12:34:01.858Z,13.70
2023-01-05T12:34:36.158Z,14.60
2023-01-05T12:35:36.161Z,14.70
2023-01-05T12:36:36.164Z,14.60
2023-01-05T12:37:36.167Z,14.00
2023-01-05T12:38:36.280Z,14.20
2023-01-05T12:39:36.158Z,13.40
2023-01-05T12:40:36.154Z,13.30
2023-01-05T12:41:36.151Z,13.50
2023-01-05T12:42:36.149Z,14.50
2023-01-05T12:43:36.151Z,14.00
2023-01-05T12:44:36.147Z,16.40
2023-01-05T12:45:36.147Z,14.90
2023-01-05T12:46:36.274Z,14.70
2023-01-05T12:47:36.148Z,14.50
2023-01-05T12:48:36.147Z,14.50
2023-01-05T12:49:36.140Z,14.30
2023-01-05T12:50:36.145Z,14.60
2023-01-05T12:51:36.137Z,14.80
2023-01-05T12:52:36.138Z,14.90
2023-01-05T12:53:36.139Z,14.60
2023-01-05T12:54:36.263Z,14.40
2023-01-05T12:55:36.129Z,13.90
2023-01-05T12:56:36.128Z,14.70
2023-01-05T12:57:36.134Z,14.00
2023-01-05T12:58:36.123Z,14.30